createdAt,value
2019-03-22T00:01:49.956Z,56.10
2019-03-22T00:06:55.600Z,55.50
2019-03-22T00:12:00.367Z,56.30
2019-03-22T00:17:06.310Z,56.40
2019-03-22T00:22:11.817Z,56.80
2019-03-22T00:27:17.454Z,57.00
2019-03-22T00:32:23.053Z,56.30
2019-03-22T00:37:28.756Z,55.70
2019-03-22T00:42:34.955Z,56.50
2019-03-22T00:47:40.494Z,56.90
2019-03-22T00:52:46.245Z,57.30
2019-03-22T00:57:51.970Z,57.90
2019-03-22T01:02:57.617Z,57.60
2019-03-22T01:08:03.220Z,58.90
2019-03-22T01:13:09.027Z,59.10
2019-03-22T01:18:14.505Z,58.40
2019-03-22T01:23:19.992Z,59.20
2019-03-22T01:28:25.678Z,59.80
2019-03-22T01:33:31.090Z,58.80
2019-03-22T01:38:36.475Z,57.40
2019-03-22T01:43:43.426Z,58.60
2019-03-22T01:48:48.910Z,58.20
2019-03-22T01:53:55.458Z,59.20
2019-03-22T01:59:00.845Z,59.80
2019-03-22T02:04:06.408Z,59.80
2019-03-22T02:09:12.922Z,60.10
2019-03-22T02:14:18.722Z,59.50
2019-03-22T02:19:24.075Z,59.80
2019-03-22T02:24:29.527Z,60.60
2019-03-22T02:29:35.046Z,61.10
2019-03-22T02:34:41.426Z,60.10
2019-03-22T02:39:47.237Z,61.90
2019-03-22T02:44:54.261Z,61.80
2019-03-22T02:50:00.018Z,60.80
2019-03-22T02:55:07.891Z,62.60
2019-03-22T03:00:14.202Z,62.40
2019-03-22T03:05:19.794Z,63.00
2019-03-22T03:10:25.233Z,62.00
2019-03-22T03:15:30.571Z,61.80
2019-03-22T03:20:35.871Z,61.90
2019-03-22T03:25:41.468Z,63.00
2019-03-22T03:30:46.955Z,63.70
2019-03-22T03:35:52.238Z,64.80
2019-03-22T03:40:57.518Z,65.70
2019-03-22T03:46:04.122Z,65.70
2019-03-22T03:51:09.586Z,67.70
2019-03-22T03:56:14.374Z,67.10
2019-03-22T04:01:19.119Z,66.50
2019-03-22T04:06:23.617Z,65.90
2019-03-22T04:11:28.380Z,65.70
2019-03-22T04:16:33.076Z,64.60
2019-03-22T04:21:38.028Z,65.60
2019-03-22T04:26:42.550Z,66.70
2019-03-22T04:31:47.165Z,65.90
2019-03-22T04:36:52.442Z,65.60
2019-03-22T04:41:57.253Z,64.90
2019-03-22T04:47:05.387Z,65.60
2019-03-22T04:52:11.543Z,66.00
2019-03-22T04:57:18.430Z,66.50
2019-03-22T05:02:24.351Z,67.20
2019-03-22T05:07:30.437Z,67.90
2019-03-22T05:12:37.677Z,67.70
2019-03-22T05:17:44.246Z,67.40
2019-03-22T05:22:52.012Z,67.40
2019-03-22T05:27:59.557Z,66.90
2019-03-22T05:33:05.336Z,67.40
2019-03-22T05:38:10.854Z,68.00
2019-03-22T05:43:16.544Z,67.10
2019-03-22T05:48:22.859Z,67.90
2019-03-22T05:53:28.584Z,67.90
2019-03-22T05:58:34.103Z,68.70
2019-03-22T06:03:39.772Z,69.50
2019-03-22T06:08:45.449Z,70.70
2019-03-22T06:13:51.420Z,70.70
2019-03-22T06:18:57.224Z,71.40
2019-03-22T06:24:03.329Z,72.20
2019-03-22T06:29:09.033Z,72.80
2019-03-22T06:34:14.408Z,73.30
2019-03-22T06:39:19.997Z,73.60
2019-03-22T06:44:25.725Z,74.60
2019-03-22T06:49:31.632Z,71.70
2019-03-22T06:54:37.281Z,72.30
2019-03-22T06:59:43.639Z,70.70
2019-03-22T07:04:49.850Z,70.10
2019-03-22T07:09:55.249Z,70.10
2019-03-22T07:15:01.153Z,67.30
2019-03-22T07:20:06.940Z,68.10
2019-03-22T07:25:13.121Z,66.20
2019-03-22T07:30:19.427Z,64.30
2019-03-22T07:35:25.758Z,62.60
2019-03-22T07:40:31.311Z,62.10
2019-03-22T07:45:37.022Z,64.10
2019-03-22T07:50:42.943Z,62.90
2019-03-22T07:55:49.205Z,61.60
2019-03-22T08:00:55.095Z,59.90
2019-03-22T08:06:00.658Z,59.90
2019-03-22T08:11:06.742Z,58.00
2019-03-22T08:16:13.688Z,56.60
2019-03-22T08:21:18.581Z,56.60
2019-03-22T08:26:23.341Z,54.60
2019-03-22T08:31:28.336Z,57.30
2019-03-22T08:36:33.292Z,52.60
2019-03-22T08:41:38.258Z,54.30
2019-03-22T08:46:44.993Z,52.50
2019-03-22T08:51:50.611Z,50.10
2019-03-22T08:56:55.645Z,51.80
2019-03-22T09:02:00.309Z,49.40
2019-03-22T09:07:05.259Z,47.80
2019-03-22T09:12:10.060Z,48.00
2019-03-22T09:17:16.878Z,48.50
2019-03-22T09:22:22.556Z,48.60
2019-03-22T09:27:28.636Z,48.90
2019-03-22T09:32:34.228Z,48.20
2019-03-22T09:37:40.482Z,45.80
2019-03-22T09:42:47.861Z,43.90
2019-03-22T09:47:54.481Z,43.60
2019-03-22T09:53:01.418Z,42.30
2019-03-22T09:58:07.362Z,41.00
2019-03-22T10:03:13.140Z,39.70
2019-03-22T10:08:19.029Z,39.10
2019-03-22T10:13:24.748Z,39.30
2019-03-22T10:18:30.726Z,36.90
2019-03-22T10:23:37.605Z,39.30
2019-03-22T10:28:43.254Z,36.80
2019-03-22T10:33:48.966Z,34.20
2019-03-22T10:38:55.037Z,33.50
2019-03-22T10:44:00.664Z,31.10
2019-03-22T10:49:06.052Z,32.30
2019-03-22T10:54:13.848Z,30.00
2019-03-22T10:59:19.460Z,31.10
2019-03-22T11:04:25.210Z,29.50
2019-03-22T11:09:31.074Z,29.70
2019-03-22T11:14:37.391Z,26.20
2019-03-22T11:19:43.019Z,27.00
2019-03-22T11:24:52.153Z,26.40
2019-03-22T11:29:57.806Z,27.70
2019-03-22T11:35:05.245Z,24.00
2019-03-22T11:40:13.274Z,26.80
2019-03-22T11:45:21.487Z,24.60
2019-03-22T11:50:28.929Z,27.40
2019-03-22T11:55:35.612Z,23.40
2019-03-22T12:00:43.952Z,23.20
2019-03-22T12:05:51.349Z,23.30
2019-03-22T12:10:57.740Z,21.90
2019-03-22T12:16:03.880Z,23.80
2019-03-22T12:21:10.029Z,21.80
2019-03-22T12:26:14.849Z,22.60
2019-03-22T12:31:19.800Z,22.90
2019-03-22T12:36:24.729Z,21.50
2019-03-22T12:41:29.384Z,22.20
2019-03-22T12:46:34.212Z,19.90
2019-03-22T12:51:41.698Z,20.30
2019-03-22T12:56:47.828Z,20.30
2019-03-22T13:01:53.217Z,22.50
2019-03-22T13:06:58.134Z,22.60
2019-03-22T13:12:03.129Z,22.00
2019-03-22T13:17:07.113Z,22.30
2019-03-22T13:22:12.846Z,20.60
2019-03-22T13:27:19.137Z,19.40
2019-03-22T13:32:26.315Z,22.20
2019-03-22T13:37:33.463Z,21.40
2019-03-22T13:42:39.547Z,21.60
2019-03-22T13:47:45.280Z,21.10
2019-03-22T13:52:51.425Z,21.30
2019-03-22T13:57:58.004Z,21.50
2019-03-22T14:03:04.514Z,21.90
2019-03-22T14:08:10.401Z,22.60
2019-03-22T14:13:16.465Z,22.80
2019-03-22T14:18:22.433Z,21.60
2019-03-22T14:23:28.235Z,22.90
2019-03-22T14:28:33.601Z,22.70
2019-03-22T14:33:39.484Z,23.30
2019-03-22T14:38:45.946Z,23.10
2019-03-22T14:43:51.631Z,23.20
2019-03-22T14:48:57.423Z,23.00
2019-03-22T14:54:03.150Z,24.40
2019-03-22T14:59:09.180Z,24.70
2019-03-22T15:04:15.238Z,24.40
2019-03-22T15:09:20.844Z,25.40
2019-03-22T15:14:40.852Z,25.40
2019-03-22T15:20:06.142Z,25.60
2019-03-22T15:25:35.243Z,27.60
2019-03-22T15:31:00.111Z,25.50
2019-03-22T15:36:32.031Z,26.90
2019-03-22T15:41:36.841Z,27.00
2019-03-22T15:46:41.909Z,26.80
2019-03-22T15:51:48.806Z,26.20
2019-03-22T15:56:53.869Z,26.10
2019-03-22T16:01:58.975Z,27.50
2019-03-22T16:07:04.870Z,26.60
2019-03-22T16:12:11.098Z,25.80
2019-03-22T16:17:17.459Z,27.10
2019-03-22T16:22:23.433Z,27.70
2019-03-22T16:27:28.928Z,26.90
2019-03-22T16:32:35.403Z,28.00
2019-03-22T16:37:41.572Z,26.30
2019-03-22T16:42:47.100Z,26.50
2019-03-22T16:47:53.454Z,26.80
2019-03-22T16:52:58.944Z,26.70
2019-03-22T16:58:03.215Z,26.70
2019-03-22T17:03:10.202Z,27.30
2019-03-22T17:08:17.159Z,26.80
2019-03-22T17:13:23.974Z,28.30
2019-03-22T17:18:30.520Z,28.00
2019-03-22T17:23:36.343Z,30.90
2019-03-22T17:28:41.931Z,31.20
2019-03-22T17:33:48.377Z,31.00
2019-03-22T17:38:54.103Z,32.20
2019-03-22T17:43:59.975Z,31.90
2019-03-22T17:49:06.494Z,33.60
2019-03-22T17:54:13.909Z,34.10
2019-03-22T17:59:21.209Z,33.40
2019-03-22T18:04:26.635Z,35.60
2019-03-22T18:09:32.325Z,35.70
2019-03-22T18:14:38.536Z,35.90
2019-03-22T18:19:45.843Z,36.90
2019-03-22T18:24:51.874Z,37.60
2019-03-22T18:29:57.655Z,37.40
2019-03-22T18:35:05.613Z,37.10
2019-03-22T18:40:11.813Z,38.00
2019-03-22T18:45:17.212Z,40.10
2019-03-22T18:50:23.087Z,40.80
2019-03-22T18:55:29.833Z,40.00
2019-03-22T19:00:35.580Z,40.50
2019-03-22T19:05:43.116Z,41.10
2019-03-22T19:10:49.523Z,42.10
2019-03-22T19:15:55.890Z,42.60
2019-03-22T19:21:01.712Z,42.80
2019-03-22T19:26:07.137Z,43.10
2019-03-22T19:31:11.942Z,44.10
2019-03-22T19:36:17.190Z,44.80
2019-03-22T19:41:21.958Z,45.40
2019-03-22T19:46:28.296Z,45.00
2019-03-22T19:51:33.192Z,44.70
2019-03-22T19:56:38.347Z,45.80
2019-03-22T20:01:43.468Z,45.20
2019-03-22T20:06:48.097Z,46.50
2019-03-22T20:11:52.883Z,46.90
2019-03-22T20:16:57.616Z,45.80
2019-03-22T20:22:02.730Z,48.50
2019-03-22T20:27:07.431Z,49.20
2019-03-22T20:32:12.401Z,49.80
2019-03-22T20:37:18.406Z,49.60
2019-03-22T20:42:24.128Z,51.20
2019-03-22T20:47:29.570Z,52.00
2019-03-22T20:52:35.466Z,52.20
2019-03-22T20:57:41.620Z,52.10
2019-03-22T21:02:47.473Z,53.00
2019-03-22T21:07:53.256Z,54.10
2019-03-22T21:12:59.100Z,53.90
2019-03-22T21:18:04.906Z,54.20
2019-03-22T21:23:10.538Z,55.60
2019-03-22T21:28:16.834Z,54.70
2019-03-22T21:33:22.744Z,55.10
2019-03-22T21:38:28.614Z,55.10
2019-03-22T21:43:34.527Z,54.40
2019-03-22T21:48:40.337Z,55.20
2019-03-22T21:53:46.117Z,55.70
2019-03-22T21:58:51.988Z,55.70
2019-03-22T22:03:58.021Z,55.50
2019-03-22T22:09:05.394Z,57.10
2019-03-22T22:14:12.790Z,56.60
2019-03-22T22:19:18.968Z,58.20
2019-03-22T22:24:24.556Z,57.60
2019-03-22T22:29:30.171Z,57.60
2019-03-22T22:34:36.020Z,57.20
2019-03-22T22:39:43.290Z,57.80
2019-03-22T22:44:49.832Z,58.40
2019-03-22T22:49:55.592Z,59.50
2019-03-22T22:55:01.321Z,60.20
2019-03-22T23:00:11.100Z,58.40
2019-03-22T23:05:17.732Z,60.00
2019-03-22T23:10:23.198Z,60.60
2019-03-22T23:15:29.612Z,61.80
2019-03-22T23:20:35.579Z,60.00
2019-03-22T23:25:41.115Z,59.90
2019-03-22T23:30:47.177Z,62.00
2019-03-22T23:35:52.902Z,61.50
2019-03-22T23:41:00.506Z,61.90
2019-03-22T23:46:05.429Z,62.50
2019-03-22T23:51:10.013Z,62.70
2019-03-22T23:56:14.928Z,63.70
